Portada
METAR-TAF:

METAR-TAF

Aeropuertos :

Aeropuerto Internacional de Wellington

Wellington, Nueva Zelanda

latitud: 41-20S, longitud: 174-48E, altitud: 12 m

Observación

El informe se hizo hace 41 minutos, a las 00:30 UTC
Viento 4 kt del norte-noreste
Temperatura 14°C
Humedad 72%
Presión 1018 hPa
Visibilidad 10 km o más

METAR: NZWN 290030Z AUTO 02004KT 9999 SCT028/// BKN034/// 14/09 Q1018 NOSIG

Hora: 13:11 (01:11 UTC)

Pronóstico

El informe se hizo hace 1 hora y 39 minutos, a las 23:32 UTC
Pronóstico válido del 29 a las 00 UTC al 30 a las 00 UTC
Viento 8 kt del norte-noreste
Visibilidad 10 km o más
Cielo nuboso a una altura de 2500 ft
A partir de las 29 a las 0300 UTC
Viento 13 kt del sur
Visibilidad 10 km o más
Escasas nubes a una altura de 1000 ft
Cielo nuboso a una altura de 2000 ft
chaparrones de lluvia

TAF: NZWN 282332Z 2900/3000 02008KT 9999 BKN025 FM290300 18013KT 9999 -SHRA FEW010 BKN020

Observaciones y pronósticos meteorológicos de más de 4000 aeropuertos (mensajes METAR y TAF).

Los puntos amarillos y rojos representan las estaciones disponibles.

Ponga el ratón en el punto deseado para ver el nombre de la estación.

Haga clic para ver las observaciones y los pronósticos meteorológicos.

Para cambiar el mapa : haga clic en los botones verdes con una cruz de color negro para hacer un zoom, en el botón verde con un guión para alejar o en las flechas verdes para mapas adyacentes.


METAR-TAF: